Terminal Aerodrome Forecast
Issued by NWS Tulsa, OK

Home | Current Version | Previous Version | Text Only | Print | Product List | Glossary On
Versions: 1 2 3 4 5 6 7 8 9 10 11 12 13 14 15
000
FTUS44 KTSA 201727
TAFFSM
TAF
KFSM 201727Z 2018/2118 13007KT P6SM BKN100
      TEMPO 2018/2022 5SM -RA BR BKN025
     FM210000 VRB03KT P6SM BKN100
     FM210600 27003KT 4SM BR SCT007
      TEMPO 2109/2113 1SM BR OVC004
     FM211600 28009KT P6SM SCT015=

USA.gov is the U.S. government's official web portal to all federal, state and local government web resources and services.